createdAt,value
2023-05-07T00:02:19.526Z,6.30
2023-05-07T00:04:47.489Z,6.31
2023-05-07T00:07:16.137Z,6.29
2023-05-07T00:09:44.295Z,6.28
2023-05-07T00:12:12.061Z,6.29
2023-05-07T00:14:39.646Z,6.30
2023-05-07T00:17:07.244Z,6.27
2023-05-07T00:19:34.831Z,6.25
2023-05-07T00:22:02.480Z,6.22
2023-05-07T00:24:30.242Z,6.21
2023-05-07T00:26:59.066Z,6.21
2023-05-07T00:29:26.805Z,6.21
2023-05-07T00:31:55.915Z,6.21
2023-05-07T00:34:23.821Z,6.19
2023-05-07T00:36:51.440Z,6.16
2023-05-07T00:39:19.025Z,6.14
2023-05-07T00:41:47.007Z,6.15
2023-05-07T00:44:15.457Z,6.14
2023-05-07T00:46:43.131Z,6.12
2023-05-07T00:49:10.804Z,6.12
2023-05-07T00:51:38.743Z,6.13
2023-05-07T00:54:06.942Z,6.12
2023-05-07T00:56:35.380Z,6.11
2023-05-07T00:59:03.993Z,6.11
2023-05-07T01:01:32.442Z,6.10
2023-05-07T01:04:00.168Z,6.10
2023-05-07T01:06:28.826Z,6.11
2023-05-07T01:08:58.383Z,6.11
2023-05-07T01:11:26.845Z,6.12
2023-05-07T01:13:54.847Z,6.11
2023-05-07T01:16:23.230Z,6.11
2023-05-07T01:18:51.111Z,6.08
2023-05-07T01:21:19.309Z,6.07
2023-05-07T01:23:47.229Z,6.08
2023-05-07T01:26:14.911Z,6.11
2023-05-07T01:28:45.945Z,6.09
2023-05-07T01:31:15.095Z,6.11
2023-05-07T01:33:45.475Z,6.10
2023-05-07T01:36:14.129Z,6.08
2023-05-07T01:38:42.743Z,6.06
2023-05-07T01:41:10.718Z,6.06
2023-05-07T01:43:38.416Z,6.07
2023-05-07T01:46:06.526Z,6.05
2023-05-07T01:48:34.729Z,6.05
2023-05-07T01:51:03.085Z,6.05
2023-05-07T01:53:36.975Z,6.04
2023-05-07T01:56:05.241Z,6.03
2023-05-07T01:58:34.301Z,6.04
2023-05-07T02:01:03.217Z,6.03
2023-05-07T02:03:31.802Z,6.03
2023-05-07T02:06:05.737Z,5.99
2023-05-07T02:08:38.944Z,5.97
2023-05-07T02:11:06.988Z,5.98
2023-05-07T02:13:35.914Z,5.99
2023-05-07T02:16:04.204Z,5.99
2023-05-07T02:18:32.864Z,5.98
2023-05-07T02:21:00.479Z,5.97
2023-05-07T02:23:28.181Z,5.96
2023-05-07T02:25:56.408Z,5.95
2023-05-07T02:28:24.682Z,5.93
2023-05-07T02:31:01.504Z,5.88
2023-05-07T02:33:29.535Z,5.86
2023-05-07T02:35:57.659Z,5.87
2023-05-07T02:38:25.266Z,5.87
2023-05-07T02:40:52.866Z,5.86
2023-05-07T02:43:20.643Z,5.84
2023-05-07T02:45:49.324Z,5.85
2023-05-07T02:48:17.161Z,5.86
2023-05-07T02:50:44.930Z,5.82
2023-05-07T02:53:13.376Z,5.84
2023-05-07T02:55:40.977Z,5.85
2023-05-07T02:58:08.812Z,5.86
2023-05-07T03:00:37.201Z,5.88
2023-05-07T03:03:12.527Z,5.88
2023-05-07T03:05:41.661Z,5.87
2023-05-07T03:08:09.950Z,5.87
2023-05-07T03:10:38.646Z,5.87
2023-05-07T03:13:06.342Z,5.86
2023-05-07T03:15:34.199Z,5.86
2023-05-07T03:18:01.992Z,5.85
2023-05-07T03:20:29.737Z,5.83
2023-05-07T03:22:58.258Z,5.81
2023-05-07T03:25:25.969Z,5.79
2023-05-07T03:27:53.637Z,5.75
2023-05-07T03:30:23.398Z,5.73
2023-05-07T03:32:51.255Z,5.76
2023-05-07T03:35:19.332Z,5.76
2023-05-07T03:37:47.100Z,5.75
2023-05-07T03:40:15.726Z,5.74
2023-05-07T03:42:47.533Z,5.72
2023-05-07T03:45:15.710Z,5.73
2023-05-07T03:47:46.554Z,5.73
2023-05-07T03:50:17.180Z,5.75
2023-05-07T03:52:45.481Z,5.77
2023-05-07T03:55:13.516Z,5.74
2023-05-07T03:57:42.410Z,5.71
2023-05-07T04:00:11.075Z,5.69
2023-05-07T04:02:48.278Z,5.70
2023-05-07T04:05:18.728Z,5.72
2023-05-07T04:07:47.853Z,5.71
2023-05-07T04:10:17.391Z,5.74
2023-05-07T04:12:46.051Z,5.76
2023-05-07T04:15:17.096Z,5.80
2023-05-07T04:17:44.796Z,5.83
2023-05-07T04:20:17.860Z,5.82
2023-05-07T04:22:47.792Z,5.83
2023-05-07T04:25:17.400Z,5.83
2023-05-07T04:27:45.488Z,5.86
2023-05-07T04:30:14.575Z,5.88
2023-05-07T04:32:42.678Z,5.91
2023-05-07T04:35:10.983Z,5.94
2023-05-07T04:37:41.026Z,5.97
2023-05-07T04:40:09.081Z,5.99
2023-05-07T04:42:37.499Z,6.02
2023-05-07T04:45:05.959Z,6.03
2023-05-07T04:47:34.663Z,6.04
2023-05-07T04:50:03.020Z,6.07
2023-05-07T04:52:30.684Z,6.09
2023-05-07T04:55:01.448Z,6.11
2023-05-07T04:57:31.328Z,6.13
2023-05-07T04:59:58.959Z,6.13
2023-05-07T05:02:27.056Z,6.13
2023-05-07T05:04:55.191Z,6.12
2023-05-07T05:07:24.130Z,6.12
2023-05-07T05:09:53.122Z,6.13
2023-05-07T05:12:21.351Z,6.14
2023-05-07T05:14:49.014Z,6.15
2023-05-07T05:17:17.174Z,6.13
2023-05-07T05:19:44.797Z,6.11
2023-05-07T05:22:12.792Z,6.12
2023-05-07T05:24:40.704Z,6.14
2023-05-07T05:27:08.419Z,6.15
2023-05-07T05:29:36.571Z,6.19
2023-05-07T05:32:04.549Z,6.22
2023-05-07T05:34:34.137Z,6.24
2023-05-07T05:37:02.533Z,6.24
2023-05-07T05:39:30.284Z,6.24
2023-05-07T05:41:57.934Z,6.27
2023-05-07T05:44:26.364Z,6.29
2023-05-07T05:46:56.211Z,6.29
2023-05-07T05:49:24.389Z,6.31
2023-05-07T05:51:52.196Z,6.32
2023-05-07T05:54:19.853Z,6.32
2023-05-07T05:56:47.538Z,-101.14
2023-05-07T05:59:15.886Z,-128.00
2023-05-07T06:01:44.060Z,-128.00
2023-05-07T06:04:11.748Z,-128.00
2023-05-07T06:06:39.684Z,-128.00
2023-05-07T06:09:07.375Z,-128.00
2023-05-07T06:11:39.364Z,-128.00
2023-05-07T06:14:07.602Z,-128.00
2023-05-07T06:16:35.631Z,-128.00
2023-05-07T06:19:04.147Z,-128.00
2023-05-07T06:21:32.171Z,-128.00
2023-05-07T06:23:59.751Z,-128.00
2023-05-07T06:26:27.758Z,-128.00
2023-05-07T06:28:55.576Z,-128.00
2023-05-07T06:31:23.362Z,-128.00
2023-05-07T06:34:03.670Z,-128.00
2023-05-07T06:36:36.006Z,-128.00
2023-05-07T06:39:08.656Z,-128.00
2023-05-07T06:41:37.447Z,-128.00
2023-05-07T06:44:09.800Z,-128.00
2023-05-07T06:46:46.098Z,-128.00
2023-05-07T06:49:14.736Z,-128.00
2023-05-07T06:51:42.322Z,-128.00
2023-05-07T06:54:10.212Z,-128.00
2023-05-07T06:56:39.038Z,-128.00
2023-05-07T06:59:07.286Z,-128.00
2023-05-07T07:01:38.530Z,-128.00
2023-05-07T07:04:06.700Z,-128.00
2023-05-07T07:06:34.667Z,-128.00
2023-05-07T07:09:03.157Z,-128.00
2023-05-07T07:11:31.591Z,-128.00
2023-05-07T07:14:00.243Z,-128.00
2023-05-07T07:16:27.983Z,-128.00
2023-05-07T07:18:55.816Z,-128.00
2023-05-07T07:21:23.771Z,-128.00
2023-05-07T07:23:52.172Z,-128.00
2023-05-07T07:26:20.373Z,-128.00
2023-05-07T07:28:48.098Z,-128.00
2023-05-07T07:31:18.879Z,-128.00
2023-05-07T07:33:47.266Z,-128.00
2023-05-07T07:36:14.865Z,-128.00
2023-05-07T07:38:42.717Z,-128.00
2023-05-07T07:41:10.559Z,-128.00
2023-05-07T07:43:38.422Z,-128.00
2023-05-07T07:46:06.341Z,-128.00
2023-05-07T07:48:34.491Z,-128.00
2023-05-07T07:51:02.111Z,-128.00
2023-05-07T07:53:31.385Z,-128.00
2023-05-07T07:55:59.760Z,-128.00
2023-05-07T07:58:29.944Z,-128.00
2023-05-07T08:00:57.579Z,-128.00
2023-05-07T08:03:25.474Z,-128.00
2023-05-07T08:05:55.939Z,-128.00
2023-05-07T08:08:24.093Z,-128.00
2023-05-07T08:10:53.495Z,-128.00
2023-05-07T08:13:26.969Z,-128.00
2023-05-07T08:15:55.230Z,-128.00
2023-05-07T08:18:25.686Z,-128.00
2023-05-07T08:20:53.309Z,-128.00
2023-05-07T08:23:23.455Z,-128.00
2023-05-07T08:25:52.256Z,-128.00
2023-05-07T08:28:22.371Z,-128.00
2023-05-07T08:30:50.523Z,-128.00
2023-05-07T08:33:18.450Z,-128.00
2023-05-07T08:35:46.097Z,-128.00
2023-05-07T08:38:14.982Z,-128.00
2023-05-07T08:40:43.032Z,-128.00
2023-05-07T08:43:19.432Z,-128.00
2023-05-07T08:45:48.553Z,-128.00
2023-05-07T08:48:17.956Z,-128.00
2023-05-07T08:50:50.901Z,-128.00
2023-05-07T08:53:18.808Z,-128.00
2023-05-07T08:55:47.002Z,-128.00
2023-05-07T08:58:15.531Z,-128.00
2023-05-07T09:00:43.393Z,-128.00
2023-05-07T09:03:13.763Z,-128.00
2023-05-07T09:05:42.314Z,-128.00
2023-05-07T09:08:10.294Z,-128.00
2023-05-07T09:10:38.372Z,-128.00
2023-05-07T09:13:06.503Z,-128.00
2023-05-07T09:15:34.135Z,-128.00
2023-05-07T09:18:04.862Z,-128.00
2023-05-07T09:20:33.373Z,-128.00
2023-05-07T09:23:01.205Z,-128.00
2023-05-07T09:25:35.880Z,-128.00
2023-05-07T09:28:08.402Z,-128.00
2023-05-07T09:30:37.298Z,-128.00
2023-05-07T09:33:05.933Z,-128.00
2023-05-07T09:35:34.929Z,-128.00
2023-05-07T09:38:07.053Z,-128.00
2023-05-07T09:40:36.041Z,-128.00
2023-05-07T09:43:11.492Z,-128.00
2023-05-07T09:45:39.823Z,-128.00
2023-05-07T09:48:09.033Z,-128.00
2023-05-07T09:50:39.819Z,-128.00
2023-05-07T09:53:07.996Z,-128.00
2023-05-07T09:55:36.705Z,-128.00
2023-05-07T09:58:06.364Z,-128.00
2023-05-07T10:00:34.270Z,-128.00
2023-05-07T10:03:06.104Z,-128.00
2023-05-07T10:05:41.158Z,-128.00
2023-05-07T10:08:10.571Z,-128.00
2023-05-07T10:10:38.947Z,-128.00
2023-05-07T10:13:11.817Z,-128.00
2023-05-07T10:15:42.389Z,-128.00
2023-05-07T10:18:11.179Z,-128.00
2023-05-07T10:20:39.991Z,-128.00
2023-05-07T10:23:09.428Z,-128.00
2023-05-07T10:25:42.554Z,-128.00
2023-05-07T10:28:18.305Z,-128.00
2023-05-07T10:30:54.901Z,-128.00
2023-05-07T10:33:27.396Z,-128.00
2023-05-07T10:36:01.549Z,-128.00
2023-05-07T10:38:30.945Z,-128.00
2023-05-07T10:41:02.014Z,-128.00
2023-05-07T10:43:44.817Z,-128.00
2023-05-07T10:46:20.239Z,-128.00
2023-05-07T10:49:02.126Z,-128.00
2023-05-07T10:51:34.132Z,-128.00
2023-05-07T10:54:10.811Z,-128.00
2023-05-07T10:56:40.906Z,-128.00
2023-05-07T10:59:21.557Z,-128.00
2023-05-07T11:01:58.907Z,-128.00
2023-05-07T11:04:45.301Z,-128.00
2023-05-07T11:07:26.641Z,-128.00
2023-05-07T11:10:02.192Z,-128.00
2023-05-07T11:12:40.056Z,-128.00
2023-05-07T11:15:18.755Z,-128.00
2023-05-07T11:18:00.459Z,-128.00
2023-05-07T11:20:53.204Z,-128.00
2023-05-07T11:23:55.933Z,-128.00
2023-05-07T11:26:42.420Z,-128.00
2023-05-07T11:29:21.583Z,-128.00
2023-05-07T11:31:52.576Z,-128.00
2023-05-07T11:34:26.610Z,-128.00
2023-05-07T11:36:56.810Z,-128.00
2023-05-07T11:39:37.021Z,-128.00
2023-05-07T11:42:04.816Z,-128.00
2023-05-07T11:44:43.918Z,-128.00
2023-05-07T11:47:12.282Z,-128.00
2023-05-07T11:49:41.631Z,-128.00
2023-05-07T11:52:09.289Z,-128.00
2023-05-07T11:54:38.435Z,-128.00
2023-05-07T11:57:06.757Z,-128.00
2023-05-07T11:59:45.420Z,-128.00
2023-05-07T12:02:15.540Z,-128.00
2023-05-07T12:04:43.365Z,-128.00
2023-05-07T12:07:19.112Z,-128.00
2023-05-07T12:09:47.305Z,-128.00
2023-05-07T12:12:18.510Z,-128.00
2023-05-07T12:14:47.351Z,-128.00
2023-05-07T12:17:15.910Z,-128.00
2023-05-07T12:19:44.557Z,-128.00
2023-05-07T12:22:12.293Z,-128.00
2023-05-07T12:24:48.162Z,-128.00
2023-05-07T12:27:16.818Z,-128.00
2023-05-07T12:29:48.470Z,-128.00
2023-05-07T12:32:23.225Z,-128.00
2023-05-07T12:34:51.862Z,-128.00
2023-05-07T12:37:24.841Z,-128.00
2023-05-07T12:40:12.353Z,-128.00
2023-05-07T12:42:41.461Z,-128.00
2023-05-07T12:45:21.863Z,-128.00
2023-05-07T12:47:49.510Z,-128.00
2023-05-07T12:50:17.596Z,-128.00
2023-05-07T12:52:46.864Z,-128.00
2023-05-07T12:55:17.808Z,-128.00
2023-05-07T12:57:52.587Z,-128.00
2023-05-07T13:00:39.761Z,-128.00
2023-05-07T13:03:07.634Z,-128.00
2023-05-07T13:05:36.029Z,-128.00
2023-05-07T13:08:03.724Z,-128.00
2023-05-07T13:10:31.266Z,-128.00
2023-05-07T13:12:58.848Z,-128.00
2023-05-07T13:15:28.041Z,-128.00
2023-05-07T13:17:56.413Z,-128.00
2023-05-07T13:20:24.402Z,-128.00
2023-05-07T13:22:51.970Z,-128.00
2023-05-07T13:25:19.709Z,-128.00
2023-05-07T13:27:51.527Z,-128.00
2023-05-07T13:30:24.491Z,-128.00
2023-05-07T13:32:53.197Z,-128.00
2023-05-07T13:35:20.830Z,-128.00
2023-05-07T13:37:53.109Z,-128.00
2023-05-07T13:40:20.730Z,-128.00
2023-05-07T13:42:49.011Z,-128.00
2023-05-07T13:45:16.919Z,-128.00
2023-05-07T13:47:45.235Z,-128.00
2023-05-07T13:50:14.587Z,-128.00
2023-05-07T13:52:46.442Z,-128.00
2023-05-07T13:55:15.448Z,-128.00
2023-05-07T13:57:43.017Z,-128.00
2023-05-07T14:00:11.804Z,-128.00
2023-05-07T14:02:42.937Z,-128.00
2023-05-07T14:05:11.272Z,-128.00
2023-05-07T14:07:38.980Z,-128.00
2023-05-07T14:10:07.097Z,-128.00
2023-05-07T14:12:34.704Z,-128.00
2023-05-07T14:15:02.354Z,-128.00
2023-05-07T14:17:30.047Z,-128.00
2023-05-07T14:19:58.383Z,-128.00
2023-05-07T14:22:25.959Z,-128.00
2023-05-07T14:25:05.726Z,-128.00
2023-05-07T14:27:34.342Z,-128.00
2023-05-07T14:30:02.118Z,-128.00
2023-05-07T14:32:29.786Z,-128.00
2023-05-07T14:34:57.479Z,-128.00
2023-05-07T14:37:25.517Z,-128.00
2023-05-07T14:39:53.150Z,-128.00
2023-05-07T14:42:21.179Z,-128.00
2023-05-07T14:44:49.393Z,-128.00
2023-05-07T14:47:18.312Z,-128.00
2023-05-07T14:49:47.436Z,-128.00
2023-05-07T14:52:15.115Z,-128.00
2023-05-07T14:54:42.737Z,-128.00
2023-05-07T14:57:14.232Z,-128.00
2023-05-07T14:59:42.500Z,-128.00
2023-05-07T15:02:12.473Z,-128.00
2023-05-07T15:04:46.810Z,-128.00
2023-05-07T15:07:16.202Z,-128.00
2023-05-07T15:09:44.287Z,-128.00
2023-05-07T15:12:12.610Z,-128.00
2023-05-07T15:14:40.583Z,-128.00
2023-05-07T15:17:08.617Z,-128.00
2023-05-07T15:19:37.470Z,-128.00
2023-05-07T15:22:05.920Z,-128.00
2023-05-07T15:24:33.568Z,-128.00
2023-05-07T15:27:01.979Z,-128.00
2023-05-07T15:29:29.915Z,-128.00
2023-05-07T15:31:58.615Z,-128.00
2023-05-07T15:34:26.384Z,-128.00
2023-05-07T15:36:54.021Z,-128.00
2023-05-07T15:39:22.911Z,-128.00
2023-05-07T15:41:51.998Z,-128.00
2023-05-07T15:44:19.791Z,-128.00
2023-05-07T15:46:47.432Z,-128.00
2023-05-07T15:49:15.397Z,-128.00
2023-05-07T15:51:43.250Z,-128.00
2023-05-07T15:54:10.946Z,-128.00
2023-05-07T15:56:38.786Z,-128.00
2023-05-07T15:59:06.475Z,-128.00
2023-05-07T16:01:34.151Z,-128.00
2023-05-07T16:04:01.854Z,-128.00
2023-05-07T16:06:29.574Z,-128.00
2023-05-07T16:08:57.333Z,-128.00
2023-05-07T16:11:25.401Z,-128.00
2023-05-07T16:13:53.005Z,-128.00
2023-05-07T16:16:21.291Z,-128.00
2023-05-07T16:18:48.896Z,-128.00
2023-05-07T16:21:16.478Z,-128.00
2023-05-07T16:23:44.198Z,-128.00
2023-05-07T16:26:13.655Z,-128.00
2023-05-07T16:28:41.333Z,-128.00
2023-05-07T16:31:09.478Z,-128.00
2023-05-07T16:33:37.194Z,-128.00
2023-05-07T16:36:04.964Z,-128.00
2023-05-07T16:38:35.460Z,-128.00
2023-05-07T16:41:03.534Z,-128.00
2023-05-07T16:43:31.565Z,-128.00
2023-05-07T16:45:59.166Z,-128.00
2023-05-07T16:48:26.881Z,-128.00
2023-05-07T16:50:54.526Z,-128.00
2023-05-07T16:53:22.133Z,-128.00
2023-05-07T16:55:49.716Z,-128.00
2023-05-07T16:58:17.354Z,-128.00
2023-05-07T17:03:16.353Z,-128.00
2023-05-07T17:05:44.136Z,-128.00
2023-05-07T17:08:13.642Z,-128.00
2023-05-07T17:10:42.181Z,-128.00
2023-05-07T17:13:09.823Z,-128.00
2023-05-07T17:15:37.422Z,-128.00
2023-05-07T17:18:05.207Z,-128.00
2023-05-07T17:20:32.881Z,-128.00
2023-05-07T17:23:00.640Z,-128.00
2023-05-07T17:25:28.237Z,-128.00
2023-05-07T17:27:55.830Z,-128.00
2023-05-07T17:30:23.565Z,-128.00
2023-05-07T17:32:51.183Z,-128.00
2023-05-07T17:35:18.798Z,-128.00
2023-05-07T17:37:52.286Z,-128.00
2023-05-07T17:40:22.283Z,-128.00
2023-05-07T17:42:52.400Z,-128.00
2023-05-07T17:45:21.653Z,-128.00
2023-05-07T17:47:49.294Z,-128.00
2023-05-07T17:50:17.019Z,-128.00
2023-05-07T17:52:44.608Z,-128.00
2023-05-07T17:55:12.575Z,-128.00
2023-05-07T17:57:40.401Z,-128.00
2023-05-07T18:00:10.130Z,-128.00
2023-05-07T18:02:38.413Z,-128.00
2023-05-07T18:05:06.920Z,-128.00
2023-05-07T18:07:35.136Z,-128.00
2023-05-07T18:10:03.364Z,-128.00
2023-05-07T18:12:31.226Z,-128.00
2023-05-07T18:14:58.859Z,-128.00
2023-05-07T18:17:27.787Z,-128.00
2023-05-07T18:19:55.585Z,-128.00
2023-05-07T18:22:23.237Z,-128.00
2023-05-07T18:24:52.421Z,-128.00
2023-05-07T18:27:20.498Z,-128.00
2023-05-07T18:29:48.092Z,-128.00
2023-05-07T18:32:15.916Z,-128.00
2023-05-07T18:34:43.661Z,-128.00
2023-05-07T18:37:11.314Z,-128.00
2023-05-07T18:39:38.926Z,-128.00
2023-05-07T18:42:08.349Z,-128.00
2023-05-07T18:44:38.373Z,-128.00
2023-05-07T18:47:06.296Z,-128.00
2023-05-07T18:49:34.805Z,-128.00
2023-05-07T18:52:02.634Z,-128.00
2023-05-07T18:54:30.298Z,-128.00
2023-05-07T18:56:58.334Z,-128.00
2023-05-07T18:59:26.007Z,-128.00
2023-05-07T19:01:53.681Z,-128.00
2023-05-07T19:04:21.392Z,-128.00
2023-05-07T19:06:49.012Z,-128.00
2023-05-07T19:09:16.655Z,-128.00
2023-05-07T19:11:44.266Z,-128.00
2023-05-07T19:14:11.875Z,-128.00
2023-05-07T19:16:39.664Z,-128.00
2023-05-07T19:19:07.513Z,-128.00
2023-05-07T19:21:35.099Z,-128.00
2023-05-07T19:24:02.691Z,-128.00
2023-05-07T19:26:30.327Z,-128.00
2023-05-07T19:31:28.849Z,-128.00
2023-05-07T19:33:57.424Z,-128.00
2023-05-07T19:36:25.605Z,-128.00
2023-05-07T19:38:54.594Z,-128.00
2023-05-07T19:41:22.360Z,-128.00
2023-05-07T19:43:50.065Z,-128.00
2023-05-07T19:46:17.725Z,-128.00
2023-05-07T19:48:45.801Z,-128.00
2023-05-07T19:51:13.493Z,-128.00
2023-05-07T19:53:41.159Z,-128.00
2023-05-07T19:56:10.608Z,-128.00
2023-05-07T19:58:38.776Z,-128.00
2023-05-07T20:01:06.543Z,-128.00
2023-05-07T20:03:35.350Z,-128.00
2023-05-07T20:06:03.459Z,-128.00
2023-05-07T20:08:31.283Z,-128.00
2023-05-07T20:10:59.959Z,-128.00
2023-05-07T20:13:27.751Z,-128.00
2023-05-07T20:15:59.590Z,-128.00
2023-05-07T20:18:28.717Z,-128.00
2023-05-07T20:20:56.598Z,-128.00
2023-05-07T20:23:24.197Z,-128.00
2023-05-07T20:25:52.519Z,-128.00
2023-05-07T20:28:20.261Z,-128.00
2023-05-07T20:30:47.937Z,-128.00
2023-05-07T20:33:15.737Z,-128.00
2023-05-07T20:35:43.897Z,-128.00
2023-05-07T20:38:11.697Z,-128.00
2023-05-07T20:40:40.816Z,-128.00
2023-05-07T20:43:08.479Z,-128.00
2023-05-07T20:45:36.148Z,-128.00
2023-05-07T20:48:03.920Z,-128.00
2023-05-07T20:50:32.272Z,-128.00
2023-05-07T20:52:59.829Z,-128.00
2023-05-07T20:55:27.490Z,-128.00
2023-05-07T20:57:55.211Z,-128.00
2023-05-07T21:00:22.798Z,-128.00
2023-05-07T21:02:50.446Z,-128.00
2023-05-07T21:05:18.191Z,-128.00
2023-05-07T21:07:45.775Z,-128.00
2023-05-07T21:10:13.475Z,-128.00
2023-05-07T21:12:41.319Z,-128.00
2023-05-07T21:15:09.671Z,-128.00
2023-05-07T21:17:37.281Z,-128.00
2023-05-07T21:20:05.814Z,-128.00
2023-05-07T21:22:33.546Z,-128.00
2023-05-07T21:25:01.227Z,-128.00
2023-05-07T21:27:29.176Z,-128.00
2023-05-07T21:30:03.208Z,-128.00
2023-05-07T21:32:30.962Z,-128.00
2023-05-07T21:35:00.698Z,-128.00
2023-05-07T21:37:28.420Z,-128.00
2023-05-07T21:39:56.316Z,-128.00
2023-05-07T21:42:24.847Z,-128.00
2023-05-07T21:44:52.577Z,-128.00
2023-05-07T21:47:20.171Z,-128.00
2023-05-07T21:49:47.813Z,-128.00
2023-05-07T21:52:16.376Z,-128.00
2023-05-07T21:54:43.987Z,-128.00
2023-05-07T21:57:11.571Z,-128.00
2023-05-07T21:59:39.350Z,-128.00
2023-05-07T22:02:06.936Z,-128.00
2023-05-07T22:04:34.624Z,-128.00
2023-05-07T22:07:02.275Z,-128.00
2023-05-07T22:09:29.881Z,-128.00
2023-05-07T22:11:57.531Z,-128.00
2023-05-07T22:14:25.116Z,-128.00
2023-05-07T22:16:52.812Z,-128.00
2023-05-07T22:19:20.817Z,-128.00
2023-05-07T22:21:48.399Z,-128.00
2023-05-07T22:24:16.017Z,-128.00
2023-05-07T22:26:45.006Z,-128.00
2023-05-07T22:29:12.636Z,-128.00
2023-05-07T22:31:40.744Z,-128.00
2023-05-07T22:34:08.461Z,-128.00
2023-05-07T22:36:36.048Z,-128.00
2023-05-07T22:39:06.999Z,-128.00
2023-05-07T22:41:34.744Z,-128.00
2023-05-07T22:44:02.910Z,-128.00
2023-05-07T22:46:30.984Z,-128.00
2023-05-07T22:48:58.728Z,-128.00
2023-05-07T22:51:26.357Z,-128.00
2023-05-07T22:53:54.128Z,-128.00
2023-05-07T22:56:22.466Z,-128.00
2023-05-07T22:58:50.162Z,-128.00
2023-05-07T23:01:18.855Z,-128.00
2023-05-07T23:03:48.744Z,-128.00
2023-05-07T23:06:16.443Z,-128.00
2023-05-07T23:08:44.045Z,-128.00
2023-05-07T23:11:11.676Z,-128.00
2023-05-07T23:13:39.272Z,-128.00
2023-05-07T23:16:06.974Z,-128.00
2023-05-07T23:18:34.543Z,-128.00
2023-05-07T23:21:02.205Z,-128.00
2023-05-07T23:23:33.707Z,-128.00
2023-05-07T23:26:01.469Z,-128.00
2023-05-07T23:28:29.062Z,-128.00
2023-05-07T23:30:56.597Z,-128.00
2023-05-07T23:33:24.217Z,-128.00
2023-05-07T23:36:01.646Z,-128.00
2023-05-07T23:38:29.489Z,-128.00
2023-05-07T23:40:57.194Z,-128.00
2023-05-07T23:43:24.977Z,-128.00
2023-05-07T23:45:52.744Z,-128.00
2023-05-07T23:48:20.422Z,-128.00
2023-05-07T23:50:48.222Z,-128.00
2023-05-07T23:53:15.778Z,-128.00
2023-05-07T23:58:12.171Z,-128.00
